sensor_id;sensor_type;location;lat;lon;timestamp;P1;durP1;ratioP1;P2;durP2;ratioP2
66163;SDS011;52962;51.088;3.096;2023-06-22T00:03:05;1.35;;;1.25;;
66163;SDS011;52962;51.088;3.096;2023-06-22T00:05:34;2.67;;;1.80;;
66163;SDS011;52962;51.088;3.096;2023-06-22T00:08:02;1.80;;;1.70;;
66163;SDS011;52962;51.088;3.096;2023-06-22T00:10:32;1.90;;;1.80;;
66163;SDS011;52962;51.088;3.096;2023-06-22T00:13:01;2.10;;;1.98;;
66163;SDS011;52962;51.088;3.096;2023-06-22T00:15:29;2.45;;;1.60;;
66163;SDS011;52962;51.088;3.096;2023-06-22T00:17:57;3.97;;;1.92;;
66163;SDS011;52962;51.088;3.096;2023-06-22T00:20:26;2.38;;;1.75;;
66163;SDS011;52962;51.088;3.096;2023-06-22T00:22:56;4.90;;;1.80;;
66163;SDS011;52962;51.088;3.096;2023-06-22T00:25:25;1.58;;;1.48;;
66163;SDS011;52962;51.088;3.096;2023-06-22T00:27:53;2.45;;;1.98;;
66163;SDS011;52962;51.088;3.096;2023-06-22T00:30:23;2.90;;;1.77;;
66163;SDS011;52962;51.088;3.096;2023-06-22T00:32:51;2.75;;;1.80;;
66163;SDS011;52962;51.088;3.096;2023-06-22T00:35:20;2.17;;;1.85;;
66163;SDS011;52962;51.088;3.096;2023-06-22T00:37:48;2.10;;;1.75;;
66163;SDS011;52962;51.088;3.096;2023-06-22T00:40:19;1.75;;;1.65;;
66163;SDS011;52962;51.088;3.096;2023-06-22T00:42:48;1.52;;;1.42;;
66163;SDS011;52962;51.088;3.096;2023-06-22T00:47:45;1.83;;;1.73;;
66163;SDS011;52962;51.088;3.096;2023-06-22T00:50:15;2.67;;;2.00;;
66163;SDS011;52962;51.088;3.096;2023-06-22T00:52:49;2.03;;;1.73;;
66163;SDS011;52962;51.088;3.096;2023-06-22T00:55:19;2.13;;;1.92;;
66163;SDS011;52962;51.088;3.096;2023-06-22T00:57:49;1.77;;;1.65;;
66163;SDS011;52962;51.088;3.096;2023-06-22T01:00:22;2.17;;;1.90;;
66163;SDS011;52962;51.088;3.096;2023-06-22T01:02:53;1.65;;;1.55;;
66163;SDS011;52962;51.088;3.096;2023-06-22T01:05:24;2.50;;;2.03;;
66163;SDS011;52962;51.088;3.096;2023-06-22T01:07:55;1.95;;;1.85;;
66163;SDS011;52962;51.088;3.096;2023-06-22T01:10:34;3.60;;;2.05;;
66163;SDS011;52962;51.088;3.096;2023-06-22T01:13:10;2.63;;;1.67;;
66163;SDS011;52962;51.088;3.096;2023-06-22T01:15:44;1.67;;;1.58;;
66163;SDS011;52962;51.088;3.096;2023-06-22T01:18:18;1.55;;;1.45;;
66163;SDS011;52962;51.088;3.096;2023-06-22T01:20:49;1.80;;;1.70;;
66163;SDS011;52962;51.088;3.096;2023-06-22T01:23:20;2.10;;;1.90;;
66163;SDS011;52962;51.088;3.096;2023-06-22T01:25:59;2.03;;;1.77;;
66163;SDS011;52962;51.088;3.096;2023-06-22T01:28:45;3.58;;;1.83;;
66163;SDS011;52962;51.088;3.096;2023-06-22T01:31:15;2.22;;;2.03;;
66163;SDS011;52962;51.088;3.096;2023-06-22T01:33:49;2.25;;;1.92;;
66163;SDS011;52962;51.088;3.096;2023-06-22T01:36:20;2.60;;;2.10;;
66163;SDS011;52962;51.088;3.096;2023-06-22T01:38:50;2.38;;;1.73;;
66163;SDS011;52962;51.088;3.096;2023-06-22T01:41:20;2.58;;;1.75;;
66163;SDS011;52962;51.088;3.096;2023-06-22T01:43:53;2.03;;;1.80;;
66163;SDS011;52962;51.088;3.096;2023-06-22T01:46:23;2.70;;;1.70;;
66163;SDS011;52962;51.088;3.096;2023-06-22T01:48:52;2.15;;;2.03;;
66163;SDS011;52962;51.088;3.096;2023-06-22T01:51:21;1.98;;;1.60;;
66163;SDS011;52962;51.088;3.096;2023-06-22T01:53:49;2.15;;;1.95;;
66163;SDS011;52962;51.088;3.096;2023-06-22T01:56:18;2.42;;;2.15;;
66163;SDS011;52962;51.088;3.096;2023-06-22T01:58:48;3.60;;;1.88;;
66163;SDS011;52962;51.088;3.096;2023-06-22T02:01:25;2.58;;;1.98;;
66163;SDS011;52962;51.088;3.096;2023-06-22T02:04:02;1.80;;;1.70;;
66163;SDS011;52962;51.088;3.096;2023-06-22T02:06:35;2.17;;;1.77;;
66163;SDS011;52962;51.088;3.096;2023-06-22T02:09:06;1.75;;;1.65;;
66163;SDS011;52962;51.088;3.096;2023-06-22T02:11:40;1.67;;;1.58;;
66163;SDS011;52962;51.088;3.096;2023-06-22T02:14:10;2.22;;;2.03;;
66163;SDS011;52962;51.088;3.096;2023-06-22T02:16:41;2.28;;;1.92;;
66163;SDS011;52962;51.088;3.096;2023-06-22T02:19:10;2.22;;;1.80;;
66163;SDS011;52962;51.088;3.096;2023-06-22T02:21:38;2.15;;;2.05;;
66163;SDS011;52962;51.088;3.096;2023-06-22T02:24:06;2.10;;;1.73;;
66163;SDS011;52962;51.088;3.096;2023-06-22T02:26:35;1.58;;;1.48;;
66163;SDS011;52962;51.088;3.096;2023-06-22T02:29:04;2.30;;;1.75;;
66163;SDS011;52962;51.088;3.096;2023-06-22T02:31:33;2.65;;;1.85;;
66163;SDS011;52962;51.088;3.096;2023-06-22T02:34:03;2.10;;;1.55;;
66163;SDS011;52962;51.088;3.096;2023-06-22T02:36:31;1.65;;;1.55;;
66163;SDS011;52962;51.088;3.096;2023-06-22T02:38:59;1.45;;;1.35;;
66163;SDS011;52962;51.088;3.096;2023-06-22T02:41:30;2.78;;;1.80;;
66163;SDS011;52962;51.088;3.096;2023-06-22T02:43:58;1.60;;;1.50;;
66163;SDS011;52962;51.088;3.096;2023-06-22T02:48:54;1.77;;;1.42;;
66163;SDS011;52962;51.088;3.096;2023-06-22T02:51:24;2.63;;;2.22;;
66163;SDS011;52962;51.088;3.096;2023-06-22T02:53:52;1.98;;;1.88;;
66163;SDS011;52962;51.088;3.096;2023-06-22T02:56:28;1.75;;;1.65;;
66163;SDS011;52962;51.088;3.096;2023-06-22T02:58:59;0.95;;;0.95;;
66163;SDS011;52962;51.088;3.096;2023-06-22T03:01:34;2.28;;;1.77;;
66163;SDS011;52962;51.088;3.096;2023-06-22T03:04:19;1.48;;;1.35;;
66163;SDS011;52962;51.088;3.096;2023-06-22T03:06:48;2.50;;;1.90;;
66163;SDS011;52962;51.088;3.096;2023-06-22T03:09:18;1.77;;;1.67;;
66163;SDS011;52962;51.088;3.096;2023-06-22T03:11:46;2.55;;;1.45;;
66163;SDS011;52962;51.088;3.096;2023-06-22T03:14:15;1.58;;;1.48;;
66163;SDS011;52962;51.088;3.096;2023-06-22T03:19:11;2.08;;;1.25;;
66163;SDS011;52962;51.088;3.096;2023-06-22T03:21:39;2.65;;;1.85;;
66163;SDS011;52962;51.088;3.096;2023-06-22T03:24:09;3.97;;;1.73;;
66163;SDS011;52962;51.088;3.096;2023-06-22T03:26:38;2.47;;;1.60;;
66163;SDS011;52962;51.088;3.096;2023-06-22T03:29:06;1.55;;;1.45;;
66163;SDS011;52962;51.088;3.096;2023-06-22T03:31:34;2.30;;;1.60;;
66163;SDS011;52962;51.088;3.096;2023-06-22T03:34:04;1.67;;;1.58;;
66163;SDS011;52962;51.088;3.096;2023-06-22T03:36:33;1.33;;;1.23;;
66163;SDS011;52962;51.088;3.096;2023-06-22T03:39:01;3.55;;;1.55;;
66163;SDS011;52962;51.088;3.096;2023-06-22T03:41:31;1.55;;;1.42;;
66163;SDS011;52962;51.088;3.096;2023-06-22T03:43:59;1.45;;;1.35;;
66163;SDS011;52962;51.088;3.096;2023-06-22T03:48:55;2.20;;;1.63;;
66163;SDS011;52962;51.088;3.096;2023-06-22T03:51:23;1.42;;;1.33;;
66163;SDS011;52962;51.088;3.096;2023-06-22T03:56:19;1.55;;;1.42;;
66163;SDS011;52962;51.088;3.096;2023-06-22T03:58:49;2.13;;;1.83;;
66163;SDS011;52962;51.088;3.096;2023-06-22T04:01:17;1.55;;;1.45;;
66163;SDS011;52962;51.088;3.096;2023-06-22T04:03:46;2.58;;;1.95;;
66163;SDS011;52962;51.088;3.096;2023-06-22T04:06:16;2.13;;;1.92;;
66163;SDS011;52962;51.088;3.096;2023-06-22T04:08:45;1.60;;;1.50;;
66163;SDS011;52962;51.088;3.096;2023-06-22T04:11:14;1.73;;;1.63;;
66163;SDS011;52962;51.088;3.096;2023-06-22T04:13:42;0.93;;;0.93;;
66163;SDS011;52962;51.088;3.096;2023-06-22T04:16:12;1.13;;;1.13;;
66163;SDS011;52962;51.088;3.096;2023-06-22T04:18:40;1.05;;;1.05;;
66163;SDS011;52962;51.088;3.096;2023-06-22T04:21:09;1.17;;;1.15;;
66163;SDS011;52962;51.088;3.096;2023-06-22T04:23:38;1.55;;;1.45;;
66163;SDS011;52962;51.088;3.096;2023-06-22T04:26:06;2.28;;;1.48;;
66163;SDS011;52962;51.088;3.096;2023-06-22T04:31:02;3.35;;;1.45;;
66163;SDS011;52962;51.088;3.096;2023-06-22T04:33:32;1.73;;;1.63;;
66163;SDS011;52962;51.088;3.096;2023-06-22T04:36:00;1.45;;;1.35;;
66163;SDS011;52962;51.088;3.096;2023-06-22T04:38:30;1.58;;;1.48;;
66163;SDS011;52962;51.088;3.096;2023-06-22T04:40:59;1.35;;;1.20;;
66163;SDS011;52962;51.088;3.096;2023-06-22T04:43:29;1.92;;;1.75;;
66163;SDS011;52962;51.088;3.096;2023-06-22T04:48:30;1.25;;;1.23;;
66163;SDS011;52962;51.088;3.096;2023-06-22T04:51:01;1.52;;;1.33;;
66163;SDS011;52962;51.088;3.096;2023-06-22T04:53:31;1.75;;;1.65;;
66163;SDS011;52962;51.088;3.096;2023-06-22T04:55:59;1.58;;;1.48;;
66163;SDS011;52962;51.088;3.096;2023-06-22T04:58:31;1.42;;;1.33;;
66163;SDS011;52962;51.088;3.096;2023-06-22T05:03:27;1.73;;;1.63;;
66163;SDS011;52962;51.088;3.096;2023-06-22T05:05:55;2.10;;;1.90;;
66163;SDS011;52962;51.088;3.096;2023-06-22T05:10:55;1.63;;;1.52;;
66163;SDS011;52962;51.088;3.096;2023-06-22T05:13:31;2.22;;;2.05;;
66163;SDS011;52962;51.088;3.096;2023-06-22T05:15:59;1.77;;;1.55;;
66163;SDS011;52962;51.088;3.096;2023-06-22T05:18:29;1.95;;;1.67;;
66163;SDS011;52962;51.088;3.096;2023-06-22T05:20:59;1.85;;;1.75;;
66163;SDS011;52962;51.088;3.096;2023-06-22T05:23:29;4.85;;;1.67;;
66163;SDS011;52962;51.088;3.096;2023-06-22T05:25:57;1.92;;;1.83;;
66163;SDS011;52962;51.088;3.096;2023-06-22T05:28:25;1.92;;;1.80;;
66163;SDS011;52962;51.088;3.096;2023-06-22T05:33:21;2.45;;;1.55;;
66163;SDS011;52962;51.088;3.096;2023-06-22T05:35:50;2.25;;;1.58;;
66163;SDS011;52962;51.088;3.096;2023-06-22T05:38:18;2.08;;;1.98;;
66163;SDS011;52962;51.088;3.096;2023-06-22T05:40:48;2.83;;;1.48;;
66163;SDS011;52962;51.088;3.096;2023-06-22T05:43:16;1.80;;;1.50;;
66163;SDS011;52962;51.088;3.096;2023-06-22T05:45:44;1.83;;;1.67;;
66163;SDS011;52962;51.088;3.096;2023-06-22T05:48:12;2.17;;;1.73;;
66163;SDS011;52962;51.088;3.096;2023-06-22T05:50:40;2.25;;;1.83;;
66163;SDS011;52962;51.088;3.096;2023-06-22T05:53:08;2.10;;;1.90;;
66163;SDS011;52962;51.088;3.096;2023-06-22T05:55:36;1.70;;;1.42;;
66163;SDS011;52962;51.088;3.096;2023-06-22T05:58:06;2.08;;;1.45;;
66163;SDS011;52962;51.088;3.096;2023-06-22T06:00:34;2.20;;;1.40;;
66163;SDS011;52962;51.088;3.096;2023-06-22T06:03:02;1.55;;;1.45;;
66163;SDS011;52962;51.088;3.096;2023-06-22T06:05:31;1.95;;;1.48;;
66163;SDS011;52962;51.088;3.096;2023-06-22T06:07:59;2.20;;;1.77;;
66163;SDS011;52962;51.088;3.096;2023-06-22T06:10:29;1.90;;;1.80;;
66163;SDS011;52962;51.088;3.096;2023-06-22T06:12:58;1.45;;;1.35;;
66163;SDS011;52962;51.088;3.096;2023-06-22T06:15:30;3.05;;;1.67;;
66163;SDS011;52962;51.088;3.096;2023-06-22T06:17:58;1.60;;;1.45;;
66163;SDS011;52962;51.088;3.096;2023-06-22T06:20:27;1.70;;;1.58;;
66163;SDS011;52962;51.088;3.096;2023-06-22T06:22:56;1.48;;;1.20;;
66163;SDS011;52962;51.088;3.096;2023-06-22T06:25:24;1.65;;;1.27;;
66163;SDS011;52962;51.088;3.096;2023-06-22T06:27:53;1.85;;;1.67;;
66163;SDS011;52962;51.088;3.096;2023-06-22T06:30:22;1.50;;;1.40;;
66163;SDS011;52962;51.088;3.096;2023-06-22T06:32:52;1.58;;;1.42;;
66163;SDS011;52962;51.088;3.096;2023-06-22T06:35:20;1.83;;;1.35;;
66163;SDS011;52962;51.088;3.096;2023-06-22T06:37:49;1.20;;;1.13;;
66163;SDS011;52962;51.088;3.096;2023-06-22T06:40:18;1.40;;;1.30;;
66163;SDS011;52962;51.088;3.096;2023-06-22T06:42:47;1.60;;;1.50;;
66163;SDS011;52962;51.088;3.096;2023-06-22T06:45:16;1.33;;;1.23;;
66163;SDS011;52962;51.088;3.096;2023-06-22T06:47:46;1.55;;;1.48;;
66163;SDS011;52962;51.088;3.096;2023-06-22T06:50:16;3.83;;;1.50;;
66163;SDS011;52962;51.088;3.096;2023-06-22T06:52:44;1.40;;;1.30;;
66163;SDS011;52962;51.088;3.096;2023-06-22T06:55:13;1.33;;;1.30;;
66163;SDS011;52962;51.088;3.096;2023-06-22T06:57:41;2.38;;;1.80;;
66163;SDS011;52962;51.088;3.096;2023-06-22T07:00:11;2.40;;;1.80;;
66163;SDS011;52962;51.088;3.096;2023-06-22T07:02:51;2.20;;;2.00;;
66163;SDS011;52962;51.088;3.096;2023-06-22T07:05:22;2.00;;;1.90;;
66163;SDS011;52962;51.088;3.096;2023-06-22T07:07:50;1.83;;;1.73;;
66163;SDS011;52962;51.088;3.096;2023-06-22T07:10:20;2.22;;;2.00;;
66163;SDS011;52962;51.088;3.096;2023-06-22T07:12:48;2.05;;;1.95;;
66163;SDS011;52962;51.088;3.096;2023-06-22T07:15:16;7.13;;;2.15;;
66163;SDS011;52962;51.088;3.096;2023-06-22T07:17:44;2.70;;;2.05;;
66163;SDS011;52962;51.088;3.096;2023-06-22T07:20:13;2.17;;;2.05;;
66163;SDS011;52962;51.088;3.096;2023-06-22T07:22:43;2.55;;;2.20;;
66163;SDS011;52962;51.088;3.096;2023-06-22T07:25:12;1.90;;;1.73;;
66163;SDS011;52962;51.088;3.096;2023-06-22T07:27:45;6.03;;;2.60;;
66163;SDS011;52962;51.088;3.096;2023-06-22T07:30:15;2.65;;;2.45;;
66163;SDS011;52962;51.088;3.096;2023-06-22T07:32:43;6.95;;;2.95;;
66163;SDS011;52962;51.088;3.096;2023-06-22T07:35:11;2.33;;;2.13;;
66163;SDS011;52962;51.088;3.096;2023-06-22T07:37:39;2.00;;;1.90;;
66163;SDS011;52962;51.088;3.096;2023-06-22T07:40:09;3.80;;;2.95;;
66163;SDS011;52962;51.088;3.096;2023-06-22T07:42:38;2.35;;;2.15;;
66163;SDS011;52962;51.088;3.096;2023-06-22T07:45:07;2.15;;;2.00;;
66163;SDS011;52962;51.088;3.096;2023-06-22T07:47:36;6.88;;;3.00;;
66163;SDS011;52962;51.088;3.096;2023-06-22T07:50:04;2.72;;;2.53;;
66163;SDS011;52962;51.088;3.096;2023-06-22T07:52:33;2.45;;;2.03;;
66163;SDS011;52962;51.088;3.096;2023-06-22T07:55:01;2.55;;;2.35;;
66163;SDS011;52962;51.088;3.096;2023-06-22T07:57:32;4.28;;;2.20;;
66163;SDS011;52962;51.088;3.096;2023-06-22T08:00:02;2.72;;;2.40;;
66163;SDS011;52962;51.088;3.096;2023-06-22T08:02:38;3.42;;;2.75;;
66163;SDS011;52962;51.088;3.096;2023-06-22T08:05:06;2.92;;;2.72;;
66163;SDS011;52962;51.088;3.096;2023-06-22T08:07:48;5.47;;;2.97;;
66163;SDS011;52962;51.088;3.096;2023-06-22T08:10:17;3.90;;;3.13;;
66163;SDS011;52962;51.088;3.096;2023-06-22T08:12:48;2.95;;;2.75;;
66163;SDS011;52962;51.088;3.096;2023-06-22T08:15:18;2.65;;;2.45;;
66163;SDS011;52962;51.088;3.096;2023-06-22T08:17:46;4.80;;;3.33;;
66163;SDS011;52962;51.088;3.096;2023-06-22T08:20:14;3.38;;;3.08;;
66163;SDS011;52962;51.088;3.096;2023-06-22T08:22:43;3.08;;;2.88;;
66163;SDS011;52962;51.088;3.096;2023-06-22T08:25:11;6.45;;;3.25;;
66163;SDS011;52962;51.088;3.096;2023-06-22T08:27:40;4.18;;;3.78;;
66163;SDS011;52962;51.088;3.096;2023-06-22T08:30:10;4.50;;;3.22;;
66163;SDS011;52962;51.088;3.096;2023-06-22T08:32:38;3.25;;;2.92;;
66163;SDS011;52962;51.088;3.096;2023-06-22T08:35:07;3.58;;;3.15;;
66163;SDS011;52962;51.088;3.096;2023-06-22T08:37:36;3.20;;;2.90;;
66163;SDS011;52962;51.088;3.096;2023-06-22T08:40:07;3.25;;;3.03;;
66163;SDS011;52962;51.088;3.096;2023-06-22T08:42:37;3.95;;;3.60;;
66163;SDS011;52962;51.088;3.096;2023-06-22T08:45:10;3.95;;;3.65;;
66163;SDS011;52962;51.088;3.096;2023-06-22T08:47:38;3.03;;;2.72;;
66163;SDS011;52962;51.088;3.096;2023-06-22T08:50:08;3.63;;;3.10;;
66163;SDS011;52962;51.088;3.096;2023-06-22T08:52:37;4.88;;;3.17;;
66163;SDS011;52962;51.088;3.096;2023-06-22T08:55:08;3.80;;;3.22;;
66163;SDS011;52962;51.088;3.096;2023-06-22T08:57:37;4.35;;;3.10;;
66163;SDS011;52962;51.088;3.096;2023-06-22T09:00:06;3.72;;;3.35;;
66163;SDS011;52962;51.088;3.096;2023-06-22T09:02:46;6.63;;;3.22;;
66163;SDS011;52962;51.088;3.096;2023-06-22T09:05:15;4.40;;;3.22;;
66163;SDS011;52962;51.088;3.096;2023-06-22T09:07:44;4.25;;;3.85;;
66163;SDS011;52962;51.088;3.096;2023-06-22T09:10:12;4.07;;;3.72;;
66163;SDS011;52962;51.088;3.096;2023-06-22T09:12:41;3.80;;;3.45;;
66163;SDS011;52962;51.088;3.096;2023-06-22T09:15:09;3.90;;;3.47;;
66163;SDS011;52962;51.088;3.096;2023-06-22T09:17:55;4.70;;;4.20;;
66163;SDS011;52962;51.088;3.096;2023-06-22T09:20:24;4.40;;;4.05;;
66163;SDS011;52962;51.088;3.096;2023-06-22T09:22:53;6.38;;;5.65;;
66163;SDS011;52962;51.088;3.096;2023-06-22T09:25:21;4.80;;;4.25;;
66163;SDS011;52962;51.088;3.096;2023-06-22T09:27:49;5.10;;;4.60;;
66163;SDS011;52962;51.088;3.096;2023-06-22T09:30:17;5.82;;;4.50;;
66163;SDS011;52962;51.088;3.096;2023-06-22T09:32:46;4.22;;;3.90;;
66163;SDS011;52962;51.088;3.096;2023-06-22T09:35:16;6.05;;;4.85;;
66163;SDS011;52962;51.088;3.096;2023-06-22T09:37:44;11.15;;;4.78;;
66163;SDS011;52962;51.088;3.096;2023-06-22T09:40:12;5.28;;;4.80;;
66163;SDS011;52962;51.088;3.096;2023-06-22T09:42:43;5.03;;;4.60;;
66163;SDS011;52962;51.088;3.096;2023-06-22T09:45:12;4.82;;;4.43;;
66163;SDS011;52962;51.088;3.096;2023-06-22T09:47:40;4.53;;;4.13;;
66163;SDS011;52962;51.088;3.096;2023-06-22T09:50:09;4.45;;;4.07;;
66163;SDS011;52962;51.088;3.096;2023-06-22T09:52:39;5.00;;;4.07;;
66163;SDS011;52962;51.088;3.096;2023-06-22T09:55:14;4.97;;;4.57;;
66163;SDS011;52962;51.088;3.096;2023-06-22T09:57:43;6.50;;;4.53;;
66163;SDS011;52962;51.088;3.096;2023-06-22T10:00:12;4.78;;;3.97;;
66163;SDS011;52962;51.088;3.096;2023-06-22T10:02:41;4.00;;;3.60;;
66163;SDS011;52962;51.088;3.096;2023-06-22T10:05:11;5.25;;;4.72;;
66163;SDS011;52962;51.088;3.096;2023-06-22T10:07:41;4.95;;;4.55;;
66163;SDS011;52962;51.088;3.096;2023-06-22T10:10:11;5.47;;;4.97;;
66163;SDS011;52962;51.088;3.096;2023-06-22T10:12:45;3.92;;;3.60;;
66163;SDS011;52962;51.088;3.096;2023-06-22T10:17:42;6.20;;;4.20;;
66163;SDS011;52962;51.088;3.096;2023-06-22T10:20:11;4.90;;;4.15;;
66163;SDS011;52962;51.088;3.096;2023-06-22T10:22:41;4.70;;;4.30;;
66163;SDS011;52962;51.088;3.096;2023-06-22T10:25:11;3.65;;;3.33;;
66163;SDS011;52962;51.088;3.096;2023-06-22T10:27:40;3.53;;;3.22;;
66163;SDS011;52962;51.088;3.096;2023-06-22T10:30:09;4.28;;;3.90;;
66163;SDS011;52962;51.088;3.096;2023-06-22T10:32:40;3.78;;;3.50;;
66163;SDS011;52962;51.088;3.096;2023-06-22T10:35:09;5.00;;;4.28;;
66163;SDS011;52962;51.088;3.096;2023-06-22T10:37:42;4.60;;;3.85;;
66163;SDS011;52962;51.088;3.096;2023-06-22T10:40:11;4.32;;;3.90;;
66163;SDS011;52962;51.088;3.096;2023-06-22T10:42:41;3.65;;;2.92;;
66163;SDS011;52962;51.088;3.096;2023-06-22T10:45:10;3.35;;;3.13;;
66163;SDS011;52962;51.088;3.096;2023-06-22T10:47:39;2.50;;;2.33;;
66163;SDS011;52962;51.088;3.096;2023-06-22T10:50:09;3.58;;;3.28;;
66163;SDS011;52962;51.088;3.096;2023-06-22T10:52:37;4.38;;;2.95;;
66163;SDS011;52962;51.088;3.096;2023-06-22T10:55:07;3.67;;;3.42;;
66163;SDS011;52962;51.088;3.096;2023-06-22T10:57:36;3.42;;;3.17;;
66163;SDS011;52962;51.088;3.096;2023-06-22T11:00:09;2.70;;;2.50;;
66163;SDS011;52962;51.088;3.096;2023-06-22T11:02:39;3.55;;;3.00;;
66163;SDS011;52962;51.088;3.096;2023-06-22T11:05:07;3.17;;;2.88;;
66163;SDS011;52962;51.088;3.096;2023-06-22T11:07:36;4.00;;;3.33;;
66163;SDS011;52962;51.088;3.096;2023-06-22T11:10:12;4.07;;;3.67;;
66163;SDS011;52962;51.088;3.096;2023-06-22T11:12:40;3.42;;;3.05;;
66163;SDS011;52962;51.088;3.096;2023-06-22T11:15:09;4.10;;;3.70;;
66163;SDS011;52962;51.088;3.096;2023-06-22T11:17:37;3.85;;;3.35;;
66163;SDS011;52962;51.088;3.096;2023-06-22T11:20:06;6.03;;;3.83;;
66163;SDS011;52962;51.088;3.096;2023-06-22T11:22:39;4.70;;;4.07;;
66163;SDS011;52962;51.088;3.096;2023-06-22T11:25:08;5.43;;;4.68;;
66163;SDS011;52962;51.088;3.096;2023-06-22T11:27:39;6.00;;;4.22;;
66163;SDS011;52962;51.088;3.096;2023-06-22T11:30:08;5.05;;;4.63;;
66163;SDS011;52962;51.088;3.096;2023-06-22T11:32:37;4.40;;;4.00;;
66163;SDS011;52962;51.088;3.096;2023-06-22T11:35:05;4.78;;;4.40;;
66163;SDS011;52962;51.088;3.096;2023-06-22T11:37:34;5.32;;;4.82;;
66163;SDS011;52962;51.088;3.096;2023-06-22T11:40:02;3.65;;;3.35;;
66163;SDS011;52962;51.088;3.096;2023-06-22T11:42:35;4.90;;;4.40;;
66163;SDS011;52962;51.088;3.096;2023-06-22T11:45:06;4.78;;;4.38;;
66163;SDS011;52962;51.088;3.096;2023-06-22T11:47:35;5.28;;;4.60;;
66163;SDS011;52962;51.088;3.096;2023-06-22T11:50:04;5.55;;;5.05;;
66163;SDS011;52962;51.088;3.096;2023-06-22T11:52:34;5.70;;;4.97;;
66163;SDS011;52962;51.088;3.096;2023-06-22T11:55:03;6.88;;;4.72;;
66163;SDS011;52962;51.088;3.096;2023-06-22T11:57:33;6.05;;;5.45;;
66163;SDS011;52962;51.088;3.096;2023-06-22T12:00:02;5.78;;;5.15;;
66163;SDS011;52962;51.088;3.096;2023-06-22T12:02:41;5.40;;;4.97;;
66163;SDS011;52962;51.088;3.096;2023-06-22T12:05:10;5.40;;;4.85;;
66163;SDS011;52962;51.088;3.096;2023-06-22T12:07:39;6.30;;;5.53;;
66163;SDS011;52962;51.088;3.096;2023-06-22T12:10:07;6.40;;;5.43;;
66163;SDS011;52962;51.088;3.096;2023-06-22T12:12:36;6.55;;;4.68;;
66163;SDS011;52962;51.088;3.096;2023-06-22T12:15:04;4.72;;;4.40;;
66163;SDS011;52962;51.088;3.096;2023-06-22T12:17:34;4.80;;;4.22;;
66163;SDS011;52962;51.088;3.096;2023-06-22T12:20:04;5.53;;;5.00;;
66163;SDS011;52962;51.088;3.096;2023-06-22T12:22:34;3.83;;;3.53;;
66163;SDS011;52962;51.088;3.096;2023-06-22T12:25:04;4.30;;;4.00;;
66163;SDS011;52962;51.088;3.096;2023-06-22T12:27:33;4.40;;;4.07;;
66163;SDS011;52962;51.088;3.096;2023-06-22T12:30:02;4.45;;;3.95;;
66163;SDS011;52962;51.088;3.096;2023-06-22T12:32:31;4.90;;;4.25;;
66163;SDS011;52962;51.088;3.096;2023-06-22T12:34:59;3.85;;;3.50;;
66163;SDS011;52962;51.088;3.096;2023-06-22T12:37:28;4.53;;;3.88;;
66163;SDS011;52962;51.088;3.096;2023-06-22T12:39:58;3.13;;;2.88;;
66163;SDS011;52962;51.088;3.096;2023-06-22T12:42:26;5.57;;;4.13;;
66163;SDS011;52962;51.088;3.096;2023-06-22T12:44:54;4.10;;;3.70;;
66163;SDS011;52962;51.088;3.096;2023-06-22T12:47:22;3.22;;;2.92;;
66163;SDS011;52962;51.088;3.096;2023-06-22T12:49:51;3.95;;;3.65;;
66163;SDS011;52962;51.088;3.096;2023-06-22T12:52:19;3.70;;;3.40;;
66163;SDS011;52962;51.088;3.096;2023-06-22T12:54:49;2.90;;;2.70;;
66163;SDS011;52962;51.088;3.096;2023-06-22T12:57:21;3.63;;;3.35;;
66163;SDS011;52962;51.088;3.096;2023-06-22T12:59:50;4.20;;;3.65;;
66163;SDS011;52962;51.088;3.096;2023-06-22T13:02:18;3.83;;;3.50;;
66163;SDS011;52962;51.088;3.096;2023-06-22T13:04:46;3.75;;;3.45;;
66163;SDS011;52962;51.088;3.096;2023-06-22T13:07:14;3.75;;;3.53;;
66163;SDS011;52962;51.088;3.096;2023-06-22T13:09:50;3.47;;;3.17;;
66163;SDS011;52962;51.088;3.096;2023-06-22T13:12:19;5.07;;;4.22;;
66163;SDS011;52962;51.088;3.096;2023-06-22T13:14:48;4.25;;;3.50;;
66163;SDS011;52962;51.088;3.096;2023-06-22T13:17:17;3.67;;;3.38;;
66163;SDS011;52962;51.088;3.096;2023-06-22T13:19:45;3.67;;;3.38;;
66163;SDS011;52962;51.088;3.096;2023-06-22T13:22:26;4.85;;;3.72;;
66163;SDS011;52962;51.088;3.096;2023-06-22T13:24:57;3.78;;;3.47;;
66163;SDS011;52962;51.088;3.096;2023-06-22T13:27:26;4.03;;;3.72;;
66163;SDS011;52962;51.088;3.096;2023-06-22T13:29:54;4.18;;;3.80;;
66163;SDS011;52962;51.088;3.096;2023-06-22T13:32:22;4.45;;;3.63;;
66163;SDS011;52962;51.088;3.096;2023-06-22T13:34:51;3.67;;;3.00;;
66163;SDS011;52962;51.088;3.096;2023-06-22T13:37:20;3.33;;;3.05;;
66163;SDS011;52962;51.088;3.096;2023-06-22T13:39:49;5.15;;;2.88;;
66163;SDS011;52962;51.088;3.096;2023-06-22T13:42:18;3.63;;;3.33;;
66163;SDS011;52962;51.088;3.096;2023-06-22T13:44:47;2.85;;;2.38;;
66163;SDS011;52962;51.088;3.096;2023-06-22T13:47:15;3.50;;;2.38;;
66163;SDS011;52962;51.088;3.096;2023-06-22T13:49:43;3.03;;;2.38;;
66163;SDS011;52962;51.088;3.096;2023-06-22T13:52:11;2.35;;;2.20;;
66163;SDS011;52962;51.088;3.096;2023-06-22T13:54:40;2.28;;;2.10;;
66163;SDS011;52962;51.088;3.096;2023-06-22T13:57:08;4.20;;;3.80;;
66163;SDS011;52962;51.088;3.096;2023-06-22T13:59:37;3.47;;;3.17;;
66163;SDS011;52962;51.088;3.096;2023-06-22T14:02:06;3.67;;;3.38;;
66163;SDS011;52962;51.088;3.096;2023-06-22T14:04:34;5.53;;;3.47;;
66163;SDS011;52962;51.088;3.096;2023-06-22T14:07:02;3.33;;;2.58;;
66163;SDS011;52962;51.088;3.096;2023-06-22T14:09:31;2.90;;;2.55;;
66163;SDS011;52962;51.088;3.096;2023-06-22T14:12:02;4.05;;;2.65;;
66163;SDS011;52962;51.088;3.096;2023-06-22T14:14:32;2.15;;;2.05;;
66163;SDS011;52962;51.088;3.096;2023-06-22T14:17:02;3.20;;;3.00;;
66163;SDS011;52962;51.088;3.096;2023-06-22T14:19:31;3.10;;;2.58;;
66163;SDS011;52962;51.088;3.096;2023-06-22T14:21:59;3.33;;;3.03;;
66163;SDS011;52962;51.088;3.096;2023-06-22T14:24:27;5.28;;;3.05;;
66163;SDS011;52962;51.088;3.096;2023-06-22T14:26:56;2.88;;;2.67;;
66163;SDS011;52962;51.088;3.096;2023-06-22T14:29:25;3.47;;;3.17;;
66163;SDS011;52962;51.088;3.096;2023-06-22T14:31:53;3.58;;;3.28;;
66163;SDS011;52962;51.088;3.096;2023-06-22T14:34:23;3.28;;;2.97;;
66163;SDS011;52962;51.088;3.096;2023-06-22T14:36:51;3.38;;;3.08;;
66163;SDS011;52962;51.088;3.096;2023-06-22T14:39:20;3.55;;;3.25;;
66163;SDS011;52962;51.088;3.096;2023-06-22T14:41:48;2.92;;;2.72;;
66163;SDS011;52962;51.088;3.096;2023-06-22T14:44:16;3.35;;;3.05;;
66163;SDS011;52962;51.088;3.096;2023-06-22T14:46:45;2.83;;;2.63;;
66163;SDS011;52962;51.088;3.096;2023-06-22T14:49:13;3.30;;;2.97;;
66163;SDS011;52962;51.088;3.096;2023-06-22T14:51:43;3.33;;;3.03;;
66163;SDS011;52962;51.088;3.096;2023-06-22T14:54:12;3.25;;;3.05;;
66163;SDS011;52962;51.088;3.096;2023-06-22T14:56:40;2.25;;;2.15;;
66163;SDS011;52962;51.088;3.096;2023-06-22T14:59:09;2.10;;;1.83;;
66163;SDS011;52962;51.088;3.096;2023-06-22T15:01:38;1.80;;;1.70;;
66163;SDS011;52962;51.088;3.096;2023-06-22T15:04:07;4.40;;;1.95;;
66163;SDS011;52962;51.088;3.096;2023-06-22T15:06:35;3.03;;;2.53;;
66163;SDS011;52962;51.088;3.096;2023-06-22T15:09:05;3.05;;;2.55;;
66163;SDS011;52962;51.088;3.096;2023-06-22T15:11:33;3.88;;;2.25;;
66163;SDS011;52962;51.088;3.096;2023-06-22T15:14:01;2.67;;;2.47;;
66163;SDS011;52962;51.088;3.096;2023-06-22T15:16:29;3.38;;;2.72;;
66163;SDS011;52962;51.088;3.096;2023-06-22T15:18:57;3.13;;;2.83;;
66163;SDS011;52962;51.088;3.096;2023-06-22T15:21:26;3.30;;;3.05;;
66163;SDS011;52962;51.088;3.096;2023-06-22T15:23:54;4.35;;;3.13;;
66163;SDS011;52962;51.088;3.096;2023-06-22T15:26:23;4.05;;;3.65;;
66163;SDS011;52962;51.088;3.096;2023-06-22T15:28:52;3.70;;;3.17;;
66163;SDS011;52962;51.088;3.096;2023-06-22T15:31:21;3.25;;;2.97;;